Airfield :
LOGIN :

Register | Disclaimer

   EN    FR    IT 

 










Legend :    VFR   Marginal VFR   IFR   Intensive IFR   Very Intensive IFR
Visi :
Ceiling :
>= 8 km
>= 3000ft
5 to 8 km
1000 to 3000 ft
1500m to 5 km
500 to 1000 ft
800 to 1500m
200 to 500 ft
< 800m
< 200 ft
Symbols :   Thunderstorms  Fog  Heavy snow  Heavy precipitations  Wind > 20 kt
SIGMETs :     Misc.  Thunderstorms  Icing  Turbulence  Mountain Waves  Volcanic Ashes







- Airport Elevation : 856 ft
- IATA code : VGO


LEVX - Vigo Peinador

CURRENT METAR :
  • 160500Z 23007KT 200V260 CAVOK 09/05 Q1023 NOSIG

EXPIRED METARs :
  • 160430Z 23006KT CAVOK 10/05 Q1023 NOSIG
  • 160400Z VRB02KT CAVOK 10/05 Q1023 NOSIG
  • 160330Z 23004KT 190V260 CAVOK 10/05 Q1023 NOSIG
  • 160300Z 23003KT 190V250 CAVOK 10/05 Q1024 NOSIG
  • 160230Z 23004KT 200V290 CAVOK 10/05 Q1024 NOSIG

TAF TAF LEVX
Valid from the 16 at 00:00 until the 17 at 00:00 UTC


152300Z 1600/1624 VRB04KT CAVOK TX19/1614Z TN06/1607Z
PROB30
TEMPO 1614/1618 26010KT
No reported NOTAMs for that airfield.



MET'MAP, your aeronautical weather chart ! - Copyright ORBIFLY December 2007 - Disclaimer

ORBIFLY MET'MAP TEAM :

Programming & Development : Alexandra Zaïnal
Concept & Development : Baudouin d'Aumeries
Co-Development & Prog : Marc-Olivier Méhu
Technical & hardware support : Manuel Goepfert

Contact : metmap@orbifly.com




SOURCES & CREDITS :

   NOAA